Time;durP1;ratioP1;P1;durP2;ratioP2;P2;SDS_P1;SDS_P2;PMS_P1;PMS_P2;Temp;Humidity;BMP_temperature;BMP_pressure;BME280_temperature;BME280_humidity;BME280_pressure;Samples;Min_cycle;Max_cycle;Signal;HPM_P1;HPM_P2
2020/12/27 00:02:22;;;;;;;6.80;4.68;;;0.20;89.00;;;;;;5091729;28;20199;-82
2020/12/27 00:04:48;;;;;;;5.90;4.88;;;0.30;88.80;;;;;;5078382;28;21621;-81
2020/12/27 00:07:16;;;;;;;5.38;4.88;;;0.30;88.50;;;;;;5079120;28;20202;-81
2020/12/27 00:09:43;;;;;;;7.10;4.60;;;0.20;88.60;;;;;;5078847;28;20238;-81
2020/12/27 00:12:10;;;;;;;7.85;4.32;;;0.20;89.30;;;;;;5093022;28;20207;-81
2020/12/27 00:14:37;;;;;;;5.00;4.47;;;0.20;89.30;;;;;;5093033;28;20199;-81
2020/12/27 00:17:04;;;;;;;5.50;4.40;;;0.10;89.60;;;;;;5091035;28;20659;-81
2020/12/27 00:19:30;;;;;;;6.13;5.13;;;0.80;89.90;;;;;;5088067;28;20190;-81
2020/12/27 00:21:57;;;;;;;5.70;4.40;;;0.10;88.90;;;;;;5091915;28;20625;-82
2020/12/27 00:24:24;;;;;;;4.90;4.47;;;0.10;89.10;;;;;;5082641;28;20195;-81
2020/12/27 00:26:51;;;;;;;6.50;4.63;;;0.10;89.10;;;;;;5081511;28;20191;-81
2020/12/27 00:29:17;;;;;;;5.60;4.95;;;0.10;88.80;;;;;;5085059;28;20597;-81
2020/12/27 00:31:44;;;;;;;6.88;4.60;;;0.10;89.10;;;;;;5083836;28;20211;-81
2020/12/27 00:34:11;;;;;;;6.18;4.13;;;-0.10;89.30;;;;;;5081671;28;20292;-81
2020/12/27 00:36:37;;;;;;;7.03;4.70;;;0.00;89.60;;;;;;5092686;28;20203;-81
2020/12/27 00:39:06;;;;;;;4.97;4.55;;;0.00;89.70;;;;;;5082985;28;20218;-81
2020/12/27 00:41:34;;;;;;;6.15;5.28;;;0.10;89.20;;;;;;5081750;28;20702;-81
2020/12/27 00:44:01;;;;;;;4.90;4.43;;;0.10;89.20;;;;;;5090002;28;20582;-81
2020/12/27 00:46:28;;;;;;;7.07;5.40;;;0.20;89.20;;;;;;5093056;28;20199;-81
2020/12/27 00:48:55;;;;;;;7.55;5.70;;;0.20;88.90;;;;;;5082441;28;20203;-81
2020/12/27 00:51:21;;;;;;;5.65;5.03;;;0.10;88.40;;;;;;5085869;28;20199;-81
2020/12/27 00:53:48;;;;;;;5.90;4.15;;;0.20;88.00;;;;;;5077963;28;20234;-81
2020/12/27 00:56:14;;;;;;;4.57;4.15;;;0.20;87.60;;;;;;5092157;28;20195;-81
2020/12/27 00:58:42;;;;;;;6.57;4.55;;;0.20;87.40;;;;;;5086445;28;20210;-81
2020/12/27 01:01:10;;;;;;;6.25;3.83;;;0.10;87.80;;;;;;5090727;28;20194;-81
2020/12/27 01:03:37;;;;;;;5.13;4.53;;;0.10;87.80;;;;;;5087112;28;20187;-81
2020/12/27 01:06:04;;;;;;;6.28;4.60;;;0.00;88.00;;;;;;5085001;28;20195;-81
2020/12/27 01:08:30;;;;;;;6.63;4.47;;;0.10;88.40;;;;;;5085752;28;20234;-82
2020/12/27 01:10:59;;;;;;;5.20;4.70;;;0.10;88.00;;;;;;5072705;28;20192;-81
2020/12/27 01:13:25;;;;;;;4.90;4.40;;;0.10;88.00;;;;;;5072996;28;20264;-81
2020/12/27 01:15:53;;;;;;;8.57;5.82;;;0.10;88.00;;;;;;5072232;28;20260;-81
2020/12/27 01:18:19;;;;;;;5.68;4.70;;;0.10;88.90;;;;;;5071543;28;20246;-81
2020/12/27 01:20:46;;;;;;;6.18;4.57;;;0.10;88.40;;;;;;5072117;28;20196;-81
2020/12/27 01:23:12;;;;;;;7.25;5.53;;;0.10;88.40;;;;;;5073476;28;20192;-81
2020/12/27 01:25:39;;;;;;;5.60;4.70;;;0.10;88.60;;;;;;5072081;28;20241;-81
2020/12/27 01:28:05;;;;;;;6.70;4.80;;;0.10;88.50;;;;;;5085865;28;20184;-81
2020/12/27 01:30:32;;;;;;;6.82;4.82;;;0.10;88.40;;;;;;5084814;28;20190;-81
2020/12/27 01:32:59;;;;;;;7.32;5.70;;;0.00;89.00;;;;;;5090154;28;20256;-81
2020/12/27 01:35:25;;;;;;;8.57;5.43;;;0.10;89.90;;;;;;5071242;28;20195;-81
2020/12/27 01:37:52;;;;;;;9.98;5.95;;;0.00;89.50;;;;;;5071945;28;20206;-81
2020/12/27 01:40:18;;;;;;;6.53;5.88;;;0.10;89.70;;;;;;5072583;28;20664;-81
2020/12/27 01:42:53;;;;;;;7.53;5.78;;;0.00;89.60;;;;;;5089521;28;20220;-81
2020/12/27 01:45:20;;;;;;;5.93;4.70;;;0.10;89.50;;;;;;5082928;28;20217;-81
2020/12/27 01:47:50;;;;;;;5.55;4.90;;;0.10;89.40;;;;;;5083318;28;20198;-81
2020/12/27 01:50:18;;;;;;;6.63;4.90;;;0.10;89.60;;;;;;5071818;28;20195;-81
2020/12/27 01:52:44;;;;;;;7.20;4.95;;;0.20;90.00;;;;;;5088078;28;20222;-81
2020/12/27 01:55:12;;;;;;;8.25;5.18;;;0.10;89.60;;;;;;5075433;28;20199;-81
2020/12/27 01:58:06;;;;;;;5.38;4.88;;;0.00;89.90;;;;;;5089052;28;20186;-82
2020/12/27 02:00:35;;;;;;;6.68;5.53;;;0.00;90.10;;;;;;5073668;28;20668;-82
2020/12/27 02:03:05;;;;;;;6.70;4.35;;;0.10;90.00;;;;;;5090900;28;20252;-81
2020/12/27 02:05:33;;;;;;;5.00;4.60;;;-0.10;89.90;;;;;;5072626;28;20615;-81
2020/12/27 02:08:04;;;;;;;7.00;5.15;;;-0.10;89.80;;;;;;5073842;28;20664;-82
2020/12/27 02:10:32;;;;;;;8.65;4.57;;;0.00;90.20;;;;;;5089324;28;20220;-81
2020/12/27 02:13:01;;;;;;;4.50;4.10;;;0.10;90.00;;;;;;5089244;28;20215;-81
2020/12/27 02:15:29;;;;;;;5.28;4.25;;;0.20;89.40;;;;;;5089070;28;20203;-81
2020/12/27 02:17:56;;;;;;;6.15;5.55;;;0.20;89.40;;;;;;5071480;28;20191;-81
2020/12/27 02:20:24;;;;;;;5.68;4.55;;;0.10;90.00;;;;;;5091106;28;20202;-82
2020/12/27 02:22:53;;;;;;;6.15;4.68;;;0.10;90.20;;;;;;5091092;28;20194;-81
2020/12/27 02:25:21;;;;;;;4.97;4.50;;;0.20;89.10;;;;;;5073815;28;20199;-81
2020/12/27 02:27:49;;;;;;;8.60;4.35;;;0.20;88.60;;;;;;5085078;28;20198;-82
2020/12/27 02:30:17;;;;;;;6.20;4.70;;;0.00;88.00;;;;;;5077777;28;20603;-82
2020/12/27 02:32:44;;;;;;;6.78;5.13;;;0.00;89.30;;;;;;5079732;28;20235;-81
2020/12/27 02:35:12;;;;;;;4.30;3.90;;;0.00;88.90;;;;;;5086289;28;20556;-81
2020/12/27 02:37:39;;;;;;;4.70;4.25;;;0.00;89.30;;;;;;5075369;28;20248;-81
2020/12/27 02:40:07;;;;;;;6.88;4.15;;;-0.10;90.00;;;;;;5080956;28;20198;-81
2020/12/27 02:42:36;;;;;;;5.57;3.85;;;0.00;89.40;;;;;;5089294;28;20221;-81
2020/12/27 02:45:10;;;;;;;5.05;4.32;;;0.00;88.70;;;;;;5071961;28;20577;-81
2020/12/27 02:47:43;;;;;;;4.63;4.13;;;0.10;89.00;;;;;;5073662;28;20747;-81
2020/12/27 02:50:13;;;;;;;9.43;5.53;;;0.00;88.70;;;;;;5088445;28;20543;-81
2020/12/27 02:52:41;;;;;;;4.15;3.75;;;0.00;87.70;;;;;;5088512;28;20231;-81
2020/12/27 02:55:08;;;;;;;5.18;4.68;;;0.00;88.00;;;;;;5071175;28;20194;-82
2020/12/27 02:57:36;;;;;;;5.85;4.60;;;0.00;88.00;;;;;;5084867;28;20209;-81
2020/12/27 03:00:05;;;;;;;5.18;4.53;;;0.10;89.00;;;;;;5090305;28;20773;-81
2020/12/27 03:02:32;;;;;;;5.45;4.38;;;0.20;88.80;;;;;;5083667;28;20655;-82
2020/12/27 03:04:58;;;;;;;5.20;4.70;;;-0.10;86.70;;;;;;5072854;28;20653;-82
2020/12/27 03:07:25;;;;;;;5.30;4.55;;;0.00;87.80;;;;;;5081464;28;20534;-82
2020/12/27 03:09:51;;;;;;;4.75;3.97;;;0.00;87.40;;;;;;5072430;28;20192;-82
2020/12/27 03:12:17;;;;;;;5.63;4.95;;;0.00;87.50;;;;;;5074580;28;20242;-82
2020/12/27 03:14:45;;;;;;;5.40;4.90;;;0.00;88.40;;;;;;5088507;28;20205;-81
2020/12/27 03:17:11;;;;;;;5.80;5.25;;;-0.10;87.80;;;;;;5069875;28;20205;-81
2020/12/27 03:19:37;;;;;;;4.55;4.00;;;-0.10;88.20;;;;;;5070627;28;20199;-82
2020/12/27 03:22:04;;;;;;;5.93;4.72;;;-0.30;88.10;;;;;;5070003;28;20199;-81
2020/12/27 03:24:30;;;;;;;5.90;4.82;;;-0.30;88.40;;;;;;5084189;28;20248;-81
2020/12/27 03:26:57;;;;;;;4.78;4.35;;;-0.20;89.00;;;;;;5089391;28;20222;-81
2020/12/27 03:29:23;;;;;;;6.10;5.20;;;-0.20;88.50;;;;;;5075943;28;20192;-82
2020/12/27 03:31:50;;;;;;;5.57;5.07;;;-0.20;88.40;;;;;;5076954;28;20206;-81
2020/12/27 03:34:17;;;;;;;6.70;5.50;;;-0.20;88.10;;;;;;5077214;28;20249;-82
2020/12/27 03:36:44;;;;;;;8.68;4.93;;;-0.40;88.30;;;;;;5070832;28;20265;-81
2020/12/27 03:39:10;;;;;;;6.30;4.68;;;-0.40;88.20;;;;;;5079257;28;20225;-81
2020/12/27 03:41:37;;;;;;;5.65;5.03;;;-0.40;88.70;;;;;;5079003;28;20269;-82
2020/12/27 03:44:03;;;;;;;8.52;5.65;;;-0.30;89.30;;;;;;5089657;28;20687;-81
2020/12/27 03:46:30;;;;;;;7.85;5.40;;;-0.20;88.90;;;;;;5096765;28;20202;-82
2020/12/27 03:48:58;;;;;;;7.15;6.45;;;-0.10;89.30;;;;;;5092952;28;20581;-82
2020/12/27 03:51:24;;;;;;;5.43;4.93;;;-0.20;88.80;;;;;;5089783;28;20664;-81
2020/12/27 03:53:51;;;;;;;6.40;4.90;;;-0.50;88.20;;;;;;5074563;28;20597;-82
2020/12/27 03:56:21;;;;;;;7.97;5.95;;;-0.60;88.60;;;;;;5074230;28;20245;-81
2020/12/27 03:58:48;;;;;;;6.20;4.80;;;-0.50;89.20;;;;;;5081235;28;20231;-81
2020/12/27 04:01:14;;;;;;;6.47;4.75;;;-0.40;89.60;;;;;;5093624;28;20482;-81
2020/12/27 04:03:42;;;;;;;5.75;5.00;;;-0.40;89.10;;;;;;5079626;28;20694;-81
2020/12/27 04:06:10;;;;;;;4.97;4.25;;;-0.40;89.30;;;;;;5076651;28;20210;-81
2020/12/27 04:08:37;;;;;;;6.15;5.15;;;-0.40;89.70;;;;;;5078739;28;20215;-81
2020/12/27 04:11:03;;;;;;;6.43;5.00;;;-0.40;89.50;;;;;;5075149;28;20241;-81
2020/12/27 04:13:30;;;;;;;6.25;4.90;;;-0.50;89.20;;;;;;5082994;28;20310;-81
2020/12/27 04:16:00;;;;;;;6.97;5.38;;;1.20;90.00;;;;;;5073051;28;20206;-81
2020/12/27 04:18:27;;;;;;;6.13;4.85;;;-0.40;88.30;;;;;;5073755;28;20444;-81
2020/12/27 04:20:53;;;;;;;6.25;4.60;;;-0.40;88.40;;;;;;5079309;28;20187;-82
2020/12/27 04:23:21;;;;;;;6.70;5.20;;;-0.40;88.30;;;;;;5085969;28;20279;-82
2020/12/27 04:25:48;;;;;;;6.97;5.05;;;-0.40;87.70;;;;;;5074276;28;20593;-81
2020/12/27 04:28:14;;;;;;;7.75;4.50;;;-0.30;87.60;;;;;;5078397;28;20191;-82
2020/12/27 04:30:43;;;;;;;5.35;4.85;;;-0.30;88.20;;;;;;5088726;28;20281;-81
2020/12/27 04:33:10;;;;;;;7.65;5.80;;;-0.40;87.70;;;;;;5075803;28;20300;-81
2020/12/27 04:35:38;;;;;;;6.40;5.68;;;-0.40;88.10;;;;;;5077856;28;20192;-82
2020/12/27 04:38:05;;;;;;;6.55;5.05;;;-0.60;87.80;;;;;;5073129;28;20248;-81
2020/12/27 04:40:33;;;;;;;8.00;5.68;;;-0.60;88.90;;;;;;5072968;28;20188;-81
2020/12/27 04:43:03;;;;;;;6.25;4.53;;;-0.70;89.00;;;;;;5090321;28;20222;-82
2020/12/27 04:45:35;;;;;;;7.15;4.45;;;-0.70;88.40;;;;;;5085338;28;20190;-82
2020/12/27 04:48:02;;;;;;;5.80;5.20;;;-0.60;89.00;;;;;;5081618;28;20248;-82
2020/12/27 04:50:33;;;;;;;5.75;4.78;;;-0.60;88.60;;;;;;5072813;28;20218;-82
2020/12/27 04:53:02;;;;;;;6.47;4.88;;;-0.60;89.20;;;;;;5086449;28;20202;-82
2020/12/27 04:55:30;;;;;;;5.15;4.65;;;-0.60;88.60;;;;;;5074451;28;20206;-81
2020/12/27 04:58:03;;;;;;;7.57;4.88;;;-0.70;88.70;;;;;;5088293;28;20211;-81
2020/12/27 05:00:31;;;;;;;7.28;5.47;;;-0.60;88.30;;;;;;5090397;28;20691;-81
2020/12/27 05:03:00;;;;;;;7.18;5.28;;;-0.20;89.00;;;;;;5084897;28;20195;-81
2020/12/27 05:05:30;;;;;;;9.13;5.85;;;-0.60;89.80;;;;;;5085495;28;20245;-82
2020/12/27 05:07:58;;;;;;;7.45;5.57;;;-0.60;89.00;;;;;;5083252;28;20629;-82
2020/12/27 05:10:26;;;;;;;7.20;5.55;;;-0.70;88.40;;;;;;5084111;28;20655;-82
2020/12/27 05:12:53;;;;;;;4.60;4.15;;;-0.80;88.60;;;;;;5073318;28;20215;-81
2020/12/27 05:15:21;;;;;;;9.57;6.38;;;-0.80;88.90;;;;;;5087998;28;20733;-81
2020/12/27 05:17:49;;;;;;;6.45;5.00;;;-0.70;89.80;;;;;;5074039;28;20203;-82
2020/12/27 05:20:19;;;;;;;6.00;5.40;;;-1.00;89.00;;;;;;5090512;28;20203;-81
2020/12/27 05:22:48;;;;;;;6.28;4.95;;;-0.90;90.10;;;;;;5090176;28;20675;-82
2020/12/27 05:25:15;;;;;;;8.38;6.50;;;-0.80;90.10;;;;;;5072231;28;20192;-82
2020/12/27 05:27:43;;;;;;;7.82;5.55;;;-0.90;89.90;;;;;;5071525;28;20200;-81
2020/12/27 05:30:10;;;;;;;6.80;4.97;;;-1.00;89.90;;;;;;5091341;28;20263;-82
2020/12/27 05:32:38;;;;;;;8.10;5.38;;;-0.90;90.40;;;;;;5075114;28;20237;-82
2020/12/27 05:35:10;;;;;;;7.72;6.30;;;-0.80;90.20;;;;;;5072307;28;20215;-82
2020/12/27 05:37:38;;;;;;;7.57;5.55;;;-0.80;90.10;;;;;;5071461;28;20290;-81
2020/12/27 05:40:06;;;;;;;6.07;4.90;;;-0.80;90.40;;;;;;5073805;28;20199;-82
2020/12/27 05:42:35;;;;;;;5.57;4.78;;;-0.80;89.80;;;;;;5082462;28;20210;-82
2020/12/27 05:45:12;;;;;;;6.78;5.55;;;-0.70;90.00;;;;;;5070854;28;20196;-82
2020/12/27 05:47:41;;;;;;;7.35;5.45;;;-0.70;90.00;;;;;;5082997;28;20241;-81
2020/12/27 05:50:12;;;;;;;6.43;4.85;;;-0.70;89.80;;;;;;5091563;28;20256;-82
2020/12/27 05:52:45;;;;;;;8.27;5.95;;;-0.70;90.00;;;;;;5089900;28;20821;-82
2020/12/27 05:55:18;;;;;;;7.40;5.82;;;-0.60;90.20;;;;;;5076859;28;20187;-82
2020/12/27 05:57:51;;;;;;;7.20;5.82;;;-0.70;90.30;;;;;;5081864;28;20195;-82
2020/12/27 06:00:20;;;;;;;6.35;5.78;;;-0.70;90.40;;;;;;5070864;28;20203;-82
2020/12/27 06:02:57;;;;;;;7.22;5.65;;;-0.60;90.00;;;;;;5082804;28;20195;-81
2020/12/27 06:06:10;;;;;;;10.23;5.68;;;-0.80;89.90;;;;;;5070622;28;20282;-81
2020/12/27 06:09:06;;;;;;;7.05;5.65;;;-0.70;90.20;;;;;;5072563;28;20199;-82
2020/12/27 06:11:52;;;;;;;6.78;4.90;;;-0.80;90.00;;;;;;5091449;28;20198;-82
2020/12/27 06:14:43;;;;;;;8.30;5.53;;;-0.90;90.20;;;;;;5089226;28;20225;-82
2020/12/27 06:17:14;;;;;;;8.63;5.75;;;-0.70;90.60;;;;;;5084231;28;20610;-82
2020/12/27 06:19:57;;;;;;;6.22;5.05;;;-0.60;90.30;;;;;;5074794;28;20242;-82
2020/12/27 06:22:31;;;;;;;6.35;5.30;;;-0.70;90.00;;;;;;5071886;28;20649;-82
2020/12/27 06:25:00;;;;;;;6.47;5.47;;;-0.70;90.00;;;;;;5090719;28;20284;-82
2020/12/27 06:27:28;;;;;;;5.63;5.13;;;-0.50;90.50;;;;;;5087922;28;20199;-82
2020/12/27 06:30:04;;;;;;;5.75;4.70;;;-0.40;90.00;;;;;;5074685;28;20187;-82
2020/12/27 06:32:36;;;;;;;6.25;5.53;;;-0.50;89.90;;;;;;5069748;28;20318;-82
2020/12/27 06:35:05;;;;;;;7.07;4.55;;;-0.50;90.00;;;;;;5088364;28;20190;-82
2020/12/27 06:37:39;;;;;;;5.80;5.13;;;-0.50;90.00;;;;;;5089277;28;20202;-81
2020/12/27 06:40:06;;;;;;;5.90;5.05;;;-0.40;90.10;;;;;;5090191;28;20191;-82
2020/12/27 06:42:32;;;;;;;7.68;5.80;;;-0.30;90.10;;;;;;5090778;28;20202;-82
2020/12/27 06:44:59;;;;;;;6.78;5.80;;;-0.30;90.20;;;;;;5090221;28;20198;-82
2020/12/27 06:47:47;;;;;;;5.65;4.80;;;-0.50;90.00;;;;;;5081267;28;20198;-82
2020/12/27 06:50:17;;;;;;;4.97;4.43;;;-0.50;90.20;;;;;;5085221;28;20543;-85
2020/12/27 06:52:44;;;;;;;5.22;4.72;;;-0.30;90.20;;;;;;5088536;28;20229;-84
2020/12/27 06:55:11;;;;;;;5.40;4.82;;;-0.10;90.10;;;;;;5076214;28;20560;-84
2020/12/27 06:57:43;;;;;;;4.43;4.03;;;-0.10;89.60;;;;;;5070615;28;20203;-84
2020/12/27 07:00:28;;;;;;;5.65;5.05;;;-0.20;89.30;;;;;;5090662;28;20226;-85
2020/12/27 07:03:08;;;;;;;4.70;4.18;;;-0.30;89.30;;;;;;5071729;28;20195;-84
2020/12/27 07:05:37;;;;;;;7.72;4.18;;;-0.40;90.30;;;;;;5080131;28;20191;-85
2020/12/27 07:08:09;;;;;;;5.80;4.60;;;-0.30;90.10;;;;;;5082358;28;20198;-84
2020/12/27 07:10:37;;;;;;;5.50;4.72;;;-0.20;90.00;;;;;;5087111;28;20218;-86
2020/12/27 07:13:05;;;;;;;5.93;5.00;;;0.00;90.10;;;;;;5078679;28;20638;-84
2020/12/27 07:15:34;;;;;;;5.20;4.65;;;0.00;89.50;;;;;;5084310;28;20218;-84
2020/12/27 07:18:08;;;;;;;5.68;5.05;;;0.10;89.50;;;;;;5073994;28;20244;-83
2020/12/27 07:20:38;;;;;;;9.50;5.57;;;-0.10;88.80;;;;;;5083529;28;20187;-83
2020/12/27 07:23:18;;;;;;;6.03;5.05;;;0.00;88.80;;;;;;5090291;28;20201;-83
2020/12/27 07:25:45;;;;;;;6.05;4.68;;;0.00;89.10;;;;;;5090549;28;20659;-83
2020/12/27 07:28:13;;;;;;;8.93;6.28;;;0.10;88.90;;;;;;5090465;28;20585;-83
2020/12/27 07:30:40;;;;;;;5.00;4.50;;;0.10;88.90;;;;;;5092962;28;20195;-82
2020/12/27 07:33:09;;;;;;;9.85;6.05;;;0.10;88.40;;;;;;5093166;28;20226;-82
2020/12/27 07:35:37;;;;;;;7.57;5.95;;;0.10;88.60;;;;;;5093139;28;20663;-82
2020/12/27 07:38:07;;;;;;;7.53;5.32;;;0.00;88.50;;;;;;5088920;28;20601;-82
2020/12/27 07:40:35;;;;;;;5.97;4.93;;;0.10;88.40;;;;;;5088492;28;20279;-82
2020/12/27 07:43:02;;;;;;;7.60;5.43;;;0.00;88.50;;;;;;5092220;28;20648;-81
2020/12/27 07:45:29;;;;;;;8.15;5.40;;;0.00;89.80;;;;;;5082042;28;20665;-82
2020/12/27 07:47:55;;;;;;;7.25;5.13;;;0.10;89.30;;;;;;5090308;28;20925;-81
2020/12/27 07:50:22;;;;;;;7.30;5.05;;;0.10;89.40;;;;;;5089558;28;20550;-82
2020/12/27 07:52:52;;;;;;;6.50;5.18;;;0.10;88.90;;;;;;5092886;28;20215;-82
2020/12/27 07:55:23;;;;;;;5.30;4.85;;;0.20;88.90;;;;;;5088062;28;20507;-82
2020/12/27 07:57:49;;;;;;;6.00;4.90;;;0.20;88.40;;;;;;5085994;28;20199;-82
2020/12/27 08:00:16;;;;;;;7.22;5.18;;;0.20;88.20;;;;;;5094026;28;20283;-82
2020/12/27 08:02:43;;;;;;;5.22;4.70;;;0.30;88.40;;;;;;5074137;28;20204;-82
2020/12/27 08:05:11;;;;;;;5.13;4.63;;;0.30;88.70;;;;;;5091590;28;20535;-82
2020/12/27 08:07:38;;;;;;;8.48;5.60;;;0.30;88.80;;;;;;5085532;28;20256;-82
2020/12/27 08:10:19;;;;;;;5.72;5.10;;;0.30;88.50;;;;;;5091415;28;20195;-82
2020/12/27 08:12:51;;;;;;;6.40;4.78;;;0.50;87.70;;;;;;5075453;28;20286;-82
2020/12/27 08:15:17;;;;;;;6.88;5.68;;;0.50;87.80;;;;;;5084925;28;20551;-82
2020/12/27 08:17:54;;;;;;;8.25;6.03;;;0.60;87.30;;;;;;5073685;28;20204;-82
2020/12/27 08:20:21;;;;;;;6.53;5.45;;;0.50;87.30;;;;;;5073902;28;20245;-82
2020/12/27 08:23:04;;;;;;;7.70;6.30;;;0.60;87.60;;;;;;5077165;28;20187;-82
2020/12/27 08:25:33;;;;;;;6.45;5.32;;;0.50;87.70;;;;;;5073913;28;20203;-80
2020/12/27 08:28:00;;;;;;;4.72;4.30;;;0.60;87.30;;;;;;5092453;28;20206;-81
2020/12/27 08:30:29;;;;;;;6.35;5.18;;;0.60;86.60;;;;;;5091870;28;20648;-82
2020/12/27 08:33:11;;;;;;;7.00;5.43;;;0.70;87.20;;;;;;5089313;28;20211;-81
2020/12/27 08:35:39;;;;;;;4.78;4.30;;;0.80;86.50;;;;;;5071909;28;20204;-81
2020/12/27 08:38:29;;;;;;;5.90;5.35;;;0.70;87.10;;;;;;5088954;28;20199;-82
2020/12/27 08:41:18;;;;;;;7.38;6.30;;;0.70;87.50;;;;;;5091258;28;20231;-81
2020/12/27 08:44:10;;;;;;;6.63;6.00;;;0.80;88.30;;;;;;5087650;28;20187;-81
2020/12/27 08:46:40;;;;;;;7.63;5.43;;;0.90;87.20;;;;;;5089119;28;20179;-81
2020/12/27 08:49:12;;;;;;;6.88;5.30;;;2.20;87.70;;;;;;5085887;28;20601;-81
2020/12/27 08:51:43;;;;;;;6.00;5.40;;;1.10;85.90;;;;;;5091179;28;20203;-81
2020/12/27 08:54:12;;;;;;;7.82;5.82;;;1.10;86.00;;;;;;5090150;28;20280;-82
2020/12/27 08:56:40;;;;;;;4.85;4.35;;;1.10;86.00;;;;;;5089199;28;20511;-82
2020/12/27 08:59:12;;;;;;;5.75;4.97;;;1.10;86.00;;;;;;5090097;28;20225;-82
2020/12/27 09:01:38;;;;;;;7.45;5.28;;;1.30;86.00;;;;;;5090203;28;20213;-82
2020/12/27 09:04:05;;;;;;;5.97;5.40;;;1.30;85.50;;;;;;5090902;28;20835;-82
2020/12/27 09:06:31;;;;;;;7.63;5.63;;;1.40;84.50;;;;;;5091749;28;20214;-82
2020/12/27 09:08:59;;;;;;;6.35;5.43;;;1.40;84.70;;;;;;5090919;28;20562;-82
2020/12/27 09:11:26;;;;;;;7.90;6.28;;;1.40;84.90;;;;;;5091705;28;20285;-82
2020/12/27 09:13:54;;;;;;;6.72;5.35;;;1.40;83.70;;;;;;5092307;28;20303;-82
2020/12/27 09:16:34;;;;;;;6.30;5.43;;;1.40;83.70;;;;;;5093010;28;20346;-82
2020/12/27 09:19:09;;;;;;;8.32;6.10;;;1.30;84.10;;;;;;5092270;28;20194;-82
2020/12/27 09:21:41;;;;;;;5.95;5.20;;;1.30;83.90;;;;;;5092955;28;20236;-82
2020/12/27 09:24:15;;;;;;;9.73;6.00;;;1.30;84.00;;;;;;5093152;28;20728;-81
2020/12/27 09:26:42;;;;;;;10.18;5.28;;;1.40;84.40;;;;;;5092355;28;20394;-82
2020/12/27 09:29:19;;;;;;;5.35;4.85;;;1.40;84.80;;;;;;5092861;28;20191;-82
2020/12/27 09:31:46;;;;;;;5.63;5.05;;;1.50;84.60;;;;;;5093148;28;20198;-82
2020/12/27 09:34:13;;;;;;;6.40;5.13;;;1.60;84.90;;;;;;5093143;28;20445;-82
2020/12/27 09:36:40;;;;;;;5.43;4.93;;;1.60;84.50;;;;;;5093150;28;20202;-82
2020/12/27 09:39:07;;;;;;;6.03;5.18;;;1.50;84.30;;;;;;5091261;28;20232;-82
2020/12/27 09:41:38;;;;;;;6.47;4.72;;;1.70;84.10;;;;;;5093203;28;20206;-82
2020/12/27 09:44:05;;;;;;;7.13;5.32;;;1.80;83.40;;;;;;5093101;28;20202;-82
2020/12/27 09:46:47;;;;;;;6.10;5.40;;;1.80;82.90;;;;;;5092966;28;20195;-82
2020/12/27 09:49:21;;;;;;;6.13;5.10;;;2.00;83.10;;;;;;5092514;28;20353;-82
2020/12/27 09:52:04;;;;;;;6.50;5.35;;;1.90;82.60;;;;;;5092742;28;20194;-82
2020/12/27 09:54:31;;;;;;;7.90;5.63;;;2.00;81.70;;;;;;5093246;28;20222;-82
2020/12/27 09:56:59;;;;;;;8.95;5.18;;;2.10;81.60;;;;;;5092494;28;20222;-81
2020/12/27 09:59:25;;;;;;;5.18;4.68;;;2.10;81.50;;;;;;5092826;28;20190;-82
2020/12/27 10:01:52;;;;;;;5.75;5.15;;;2.10;81.40;;;;;;5093011;28;20671;-81
2020/12/27 10:04:19;;;;;;;8.50;6.40;;;2.10;80.50;;;;;;5094268;28;20528;-81
2020/12/27 10:06:45;;;;;;;5.88;4.72;;;2.10;80.90;;;;;;5094419;28;20667;-81
2020/12/27 10:09:12;;;;;;;5.95;5.35;;;2.10;81.40;;;;;;5093569;28;20195;-81
2020/12/27 10:11:38;;;;;;;6.47;5.00;;;2.10;81.00;;;;;;5093915;28;20198;-82
2020/12/27 10:14:05;;;;;;;6.60;5.40;;;2.10;81.20;;;;;;5093653;28;20226;-82
2020/12/27 10:16:31;;;;;;;7.75;5.90;;;2.30;81.30;;;;;;5093293;28;20202;-81
2020/12/27 10:18:58;;;;;;;7.13;5.10;;;2.20;80.10;;;;;;5092979;28;20209;-81
2020/12/27 10:21:25;;;;;;;6.22;5.57;;;2.90;81.00;;;;;;5093341;28;20224;-81
2020/12/27 10:23:51;;;;;;;6.40;5.80;;;2.20;79.70;;;;;;5093512;28;20553;-81
2020/12/27 10:26:18;;;;;;;6.60;5.28;;;2.30;80.10;;;;;;5092947;28;20206;-81
2020/12/27 10:28:44;;;;;;;10.80;5.85;;;2.30;79.30;;;;;;5092514;28;20207;-81
2020/12/27 10:31:11;;;;;;;8.75;6.35;;;2.40;80.10;;;;;;5093617;28;20217;-84
2020/12/27 10:33:37;;;;;;;6.38;5.30;;;2.40;80.20;;;;;;5093265;28;20229;-81
2020/12/27 10:36:05;;;;;;;6.35;5.57;;;2.40;79.80;;;;;;5093401;28;20674;-82
2020/12/27 10:38:31;;;;;;;9.00;7.45;;;2.40;79.10;;;;;;5092806;28;20533;-82
2020/12/27 10:41:00;;;;;;;6.55;4.80;;;2.40;78.50;;;;;;5092663;28;20214;-82
2020/12/27 10:43:26;;;;;;;7.68;5.03;;;2.40;78.10;;;;;;5092412;28;20195;-82
2020/12/27 10:46:01;;;;;;;6.15;5.05;;;2.30;77.90;;;;;;5092537;28;20549;-81
2020/12/27 10:48:27;;;;;;;4.47;4.07;;;2.30;78.50;;;;;;5077790;28;20199;-82
2020/12/27 10:50:54;;;;;;;5.82;5.03;;;2.30;78.60;;;;;;5070118;28;20233;-81
2020/12/27 10:53:21;;;;;;;4.95;4.55;;;2.30;78.00;;;;;;5071620;28;20215;-82
2020/12/27 10:55:48;;;;;;;4.40;4.00;;;2.10;78.70;;;;;;5070964;28;20214;-82
2020/12/27 10:58:15;;;;;;;5.28;4.78;;;2.10;78.00;;;;;;5070224;28;20577;-82
2020/12/27 11:00:43;;;;;;;7.63;5.20;;;3.00;78.80;;;;;;5071131;28;20215;-82
2020/12/27 11:03:09;;;;;;;6.15;4.97;;;2.40;78.00;;;;;;5071586;28;20218;-82
2020/12/27 11:05:35;;;;;;;8.25;5.07;;;2.40;77.10;;;;;;5071744;28;20207;-82
2020/12/27 11:08:02;;;;;;;6.20;4.93;;;2.40;77.40;;;;;;5071202;28;20192;-82
2020/12/27 11:10:29;;;;;;;6.18;4.82;;;2.50;77.30;;;;;;5071260;28;20223;-81
2020/12/27 11:12:56;;;;;;;7.10;5.75;;;2.60;77.00;;;;;;5070735;28;20226;-83
2020/12/27 11:15:22;;;;;;;5.68;5.03;;;2.60;76.90;;;;;;5071574;28;20207;-82
2020/12/27 11:17:49;;;;;;;7.53;5.47;;;2.50;77.00;;;;;;5070225;28;20286;-82
2020/12/27 11:20:15;;;;;;;7.53;6.03;;;2.40;77.50;;;;;;5070766;28;20195;-82
2020/12/27 11:22:42;;;;;;;7.32;6.18;;;2.30;78.70;;;;;;5071520;28;20248;-82
2020/12/27 11:25:09;;;;;;;6.10;5.28;;;2.40;78.90;;;;;;5070820;28;20905;-81
2020/12/27 11:27:36;;;;;;;10.38;6.18;;;2.30;80.00;;;;;;5070715;28;20203;-82
2020/12/27 11:30:05;;;;;;;8.13;6.00;;;2.40;80.10;;;;;;5071512;28;20555;-82
2020/12/27 11:32:31;;;;;;;7.78;6.25;;;2.50;79.30;;;;;;5071221;28;20241;-83
2020/12/27 11:34:58;;;;;;;11.32;6.28;;;2.60;79.30;;;;;;5071463;28;20546;-81
2020/12/27 11:37:24;;;;;;;6.40;5.78;;;2.50;79.20;;;;;;5070227;28;20660;-82
2020/12/27 11:39:51;;;;;;;8.40;6.80;;;2.50;79.40;;;;;;5070602;28;20219;-82
2020/12/27 11:42:17;;;;;;;8.07;6.72;;;2.50;79.20;;;;;;5070725;28;20191;-82
2020/12/27 11:44:45;;;;;;;9.68;7.05;;;2.40;79.50;;;;;;5071091;28;20530;-82
2020/12/27 11:47:11;;;;;;;7.53;6.80;;;2.40;79.30;;;;;;5073078;28;20249;-81
2020/12/27 11:49:37;;;;;;;10.75;7.30;;;2.40;80.00;;;;;;5090272;28;20195;-81
2020/12/27 11:52:04;;;;;;;8.02;7.10;;;2.50;80.70;;;;;;5090870;28;20221;-81
2020/12/27 11:54:30;;;;;;;12.05;8.55;;;2.60;80.10;;;;;;5090362;28;20582;-82
2020/12/27 11:56:57;;;;;;;8.93;7.13;;;2.60;80.20;;;;;;5090336;28;20195;-81
2020/12/27 11:59:23;;;;;;;10.57;7.55;;;2.60;80.50;;;;;;5090549;28;20195;-81
2020/12/27 12:01:51;;;;;;;8.52;7.00;;;2.60;80.80;;;;;;5090893;28;20210;-81
2020/12/27 12:04:18;;;;;;;11.45;8.35;;;2.70;80.30;;;;;;5093898;28;20217;-82
2020/12/27 12:06:45;;;;;;;9.85;7.28;;;2.70;80.40;;;;;;5094377;28;20570;-82
2020/12/27 12:09:12;;;;;;;7.65;6.85;;;2.70;80.40;;;;;;5093285;28;20206;-82
2020/12/27 12:11:39;;;;;;;8.40;7.60;;;2.60;80.40;;;;;;5094477;28;20531;-83
2020/12/27 12:14:06;;;;;;;9.40;7.50;;;2.50;80.70;;;;;;5094853;28;20226;-81
2020/12/27 12:16:33;;;;;;;7.75;6.80;;;2.50;82.00;;;;;;5094147;28;20545;-82
2020/12/27 12:19:02;;;;;;;7.63;6.60;;;2.60;81.80;;;;;;5093450;28;20206;-82
2020/12/27 12:21:28;;;;;;;7.00;6.32;;;2.50;81.20;;;;;;5093548;28;20236;-81
2020/12/27 12:23:56;;;;;;;7.90;7.15;;;2.50;82.00;;;;;;5093957;28;20583;-82
2020/12/27 12:26:24;;;;;;;8.27;7.18;;;3.30;82.90;;;;;;5094085;28;20194;-81
2020/12/27 12:28:51;;;;;;;8.85;7.28;;;2.60;82.10;;;;;;5093268;28;20197;-82
2020/12/27 12:31:18;;;;;;;6.97;6.28;;;2.60;82.00;;;;;;5093866;28;20260;-81
2020/12/27 12:33:45;;;;;;;10.02;8.02;;;2.60;81.90;;;;;;5094214;28;20223;-82
2020/12/27 12:36:14;;;;;;;8.50;6.40;;;2.60;82.20;;;;;;5093452;28;21070;-81
2020/12/27 12:38:41;;;;;;;8.43;7.10;;;2.60;82.80;;;;;;5093499;28;20195;-81
2020/12/27 12:41:11;;;;;;;7.25;6.57;;;2.70;82.50;;;;;;5094229;28;20202;-82
2020/12/27 12:43:38;;;;;;;8.10;7.28;;;2.70;82.30;;;;;;5094025;28;20210;-80
2020/12/27 12:46:04;;;;;;;8.80;7.90;;;3.00;82.70;;;;;;5093294;28;20206;-82
2020/12/27 12:48:31;;;;;;;8.98;6.90;;;2.80;82.20;;;;;;5078075;28;20226;-82
2020/12/27 12:50:59;;;;;;;8.40;7.50;;;2.90;82.30;;;;;;5071815;28;20252;-81
2020/12/27 12:53:26;;;;;;;8.73;7.80;;;2.90;82.00;;;;;;5073325;28;20290;-82
2020/12/27 12:55:53;;;;;;;7.72;6.93;;;3.00;82.40;;;;;;5073739;28;20191;-82
2020/12/27 12:58:19;;;;;;;6.63;5.82;;;2.90;82.50;;;;;;5072511;28;20206;-81
2020/12/27 13:00:46;;;;;;;7.93;6.88;;;3.00;83.00;;;;;;5073665;28;20207;-82
2020/12/27 13:03:12;;;;;;;7.70;6.43;;;3.10;82.70;;;;;;5073230;28;20199;-82